Startpagina
METAR-TAF:

METAR-TAF

Vliegvelden :

Jersey Airport

Jersey,

breedte: 49-13N, lengte: 002-12W, hoogte: 84 m

Actueel weer

Dit bericht is 38 minuten geleden gemaakt, om 00:20 UTC
Wind 5 kt uit het noorden
Temperatuur 14°C
Vochtigheid 94%
Druk 1018 hPa
Zicht 10 km of meer

METAR: EGJJ 170020Z AUTO 01005KT 9999 NCD 14/13 Q1018

Tijdstip: 01:58 (00:58 UTC)

Verwachting

Dit bericht is 1 uur en het 59 minuten geleden gemaakt, om 22:59 UTC
Verwachting geldig van 17 om 00 UTC tot 17 om 09 UTC
Wind 4 kt uit het noordnoordoosten
Zicht 10 km of meer
Weinig wolken op 500 ft
Tijdelijke
van 17 om 00 UTC tot 17 om 07 UTC
Zicht: 7000 m
Kans 30% :
Tijdelijke
van 17 om 03 UTC tot 17 om 07 UTC
Zicht: 4000 m
Gebroken wolken op 200 ft
nevel, mistbanken

TAF: EGJJ 162259Z 1700/1709 03004KT 9999 FEW005 TEMPO 1700/1707 7000 PROB30 TEMPO 1703/1707 4000 BR BCFG BKN002

Waarnemingen en weersverwachtingen van meer dan 4000 vliegvelden (METAR en TAF).

De beschikbare stations zijn de gele en rode punten op de kaart.

Ga met uw muis naar het station om de naam te zien.

Klik dan om waarnemingen en weersverwachtingen te zien.

kaart wijzigen: klik op de groene knoppen met een zwart kruis om in te zoomen, op de groene knop met een streepje om uit te zoomen of op de groene pijlen voor aangrenzende kaarten.


METAR-TAF: